Time;durP1;ratioP1;P1;durP2;ratioP2;P2;SDS_P1;SDS_P2;PMS_P1;PMS_P2;Temp;Humidity;BMP_temperature;BMP_pressure;BME280_temperature;BME280_humidity;BME280_pressure;Samples;Min_cycle;Max_cycle;Signal;HPM_P1;HPM_P2
2021/11/27 00:01:30;;;;;;;15.73;10.70;;;;;;;13.51;69.03;100572.56;144994;592;5002;-81
2021/11/27 00:03:56;;;;;;;16.48;10.57;;;;;;;13.50;69.29;100572.53;144994;569;5002;-82
2021/11/27 00:06:25;;;;;;;17.65;11.80;;;;;;;13.49;69.13;100570.78;144994;585;5002;-82
2021/11/27 00:08:56;;;;;;;20.40;14.30;;;;;;;13.43;69.34;100575.06;144994;609;5002;-82
2021/11/27 00:11:23;;;;;;;19.90;14.27;;;;;;;13.40;69.40;100569.78;144994;563;5002;-80
2021/11/27 00:13:51;;;;;;;23.52;16.17;;;;;;;13.37;69.46;100564.53;144994;651;5002;-81
2021/11/27 00:16:19;;;;;;;25.70;16.85;;;;;;;13.36;69.56;100572.31;144994;570;5002;-82
2021/11/27 00:18:45;;;;;;;24.85;16.92;;;;;;;13.30;69.45;100574.78;144994;569;5002;-80
2021/11/27 00:21:14;;;;;;;24.67;16.60;;;;;;;13.29;69.50;100573.91;144994;576;5002;-81
2021/11/27 00:23:44;;;;;;;24.00;16.08;;;;;;;13.27;69.41;100578.25;144994;598;5002;-81
2021/11/27 00:26:14;;;;;;;21.27;15.77;;;;;;;13.25;69.27;100586.03;144994;660;5002;-80
2021/11/27 00:28:41;;;;;;;22.08;14.60;;;;;;;13.21;69.39;100598.97;144994;718;5002;-81
2021/11/27 00:31:12;;;;;;;21.60;13.50;;;;;;;12.79;69.96;100592.13;144994;643;5002;-80
2021/11/27 00:33:39;;;;;;;19.90;12.98;;;;;;;12.91;70.08;100602.78;144994;710;5002;-81
2021/11/27 00:36:06;;;;;;;19.52;13.13;;;;;;;12.89;70.16;100604.50;144994;630;5002;-82
2021/11/27 00:38:33;;;;;;;16.65;12.50;;;;;;;12.93;70.05;100581.97;144994;565;5002;-82
2021/11/27 00:41:00;;;;;;;18.90;12.40;;;;;;;12.96;70.08;100590.72;144994;835;5002;-82
2021/11/27 00:43:26;;;;;;;16.87;11.85;;;;;;;12.99;70.17;100590.78;144994;804;5002;-82
2021/11/27 00:45:54;;;;;;;18.37;12.93;;;;;;;13.01;70.00;100581.28;144994;667;5002;-82
2021/11/27 00:48:21;;;;;;;16.73;12.43;;;;;;;13.04;69.92;100586.56;144994;585;5002;-82
2021/11/27 00:50:52;;;;;;;17.35;12.30;;;;;;;13.07;69.92;100586.59;144994;614;5002;-81
2021/11/27 00:53:20;;;;;;;16.48;11.93;;;;;;;13.04;70.03;100590.88;144994;627;5002;-82
2021/11/27 00:55:48;;;;;;;19.30;11.93;;;;;;;13.03;69.82;100587.38;144994;584;5002;-83
2021/11/27 00:58:15;;;;;;;16.98;11.77;;;;;;;13.01;70.03;100583.88;144994;589;5002;-82
2021/11/27 01:00:49;;;;;;;16.05;12.13;;;;;;;13.02;69.76;100576.94;144994;726;5002;-82
2021/11/27 01:03:17;;;;;;;17.55;12.07;;;;;;;13.07;69.95;100585.72;144994;721;5002;-82
2021/11/27 01:05:45;;;;;;;20.27;13.65;;;;;;;13.02;70.26;100593.44;144994;614;5002;-82
2021/11/27 01:08:12;;;;;;;21.12;13.38;;;;;;;13.09;70.22;100575.31;144994;604;5002;-80
2021/11/27 01:10:50;;;;;;;17.85;12.18;;;;;;;13.11;70.28;100586.63;144994;565;5002;-82
2021/11/27 01:13:18;;;;;;;16.67;12.52;;;;;;;13.15;69.83;100581.50;144994;610;5002;-80
2021/11/27 01:15:48;;;;;;;17.50;11.10;;;;;;;13.16;70.09;100561.56;144994;675;5002;-82
2021/11/27 01:18:16;;;;;;;16.25;10.45;;;;;;;13.20;70.03;100568.53;144994;630;5002;-82
2021/11/27 01:20:55;;;;;;;15.13;10.52;;;;;;;13.25;69.94;100567.78;144994;641;5002;-81
2021/11/27 01:23:23;;;;;;;16.10;9.88;;;;;;;13.18;69.99;100523.34;144994;587;5002;-82
2021/11/27 01:25:52;;;;;;;14.45;10.80;;;;;;;13.20;70.22;100548.59;144994;579;5002;-81
2021/11/27 01:28:21;;;;;;;13.15;10.30;;;;;;;13.26;70.28;100563.44;144994;684;5002;-81
2021/11/27 01:30:51;;;;;;;14.90;10.48;;;;;;;13.32;69.97;100547.91;144994;564;5002;-81
2021/11/27 01:33:18;;;;;;;14.70;10.55;;;;;;;13.34;69.51;100533.19;144994;624;5002;-83
2021/11/27 01:35:44;;;;;;;15.02;9.63;;;;;;;13.36;69.64;100531.50;144994;604;5002;-82
2021/11/27 01:38:11;;;;;;;15.52;9.68;;;;;;;13.36;69.31;100523.69;144994;586;5002;-81
2021/11/27 01:40:39;;;;;;;13.32;9.68;;;;;;;13.37;69.30;100545.41;144994;598;5002;-81
2021/11/27 01:43:05;;;;;;;15.32;9.73;;;;;;;13.34;69.34;100553.16;144994;593;5002;-82
2021/11/27 01:45:32;;;;;;;12.75;8.73;;;;;;;13.30;69.23;100540.91;144994;589;5002;-81
2021/11/27 01:48:05;;;;;;;10.77;7.72;;;;;;;13.28;69.20;100533.06;144994;675;5002;-81
2021/11/27 01:50:40;;;;;;;7.53;5.93;;;;;;;13.26;69.33;100519.13;144994;586;5002;-81
2021/11/27 01:53:06;;;;;;;12.68;6.50;;;;;;;13.24;68.93;100550.38;144994;669;5002;-81
2021/11/27 01:55:33;;;;;;;10.88;7.07;;;;;;;13.23;69.06;100552.97;144994;625;5002;-81
2021/11/27 01:58:00;;;;;;;13.43;7.28;;;;;;;13.20;69.40;100545.09;144994;600;5002;-82
2021/11/27 02:00:31;;;;;;;12.40;8.05;;;;;;;13.07;69.59;100544.00;144994;585;5002;-82
2021/11/27 02:02:59;;;;;;;12.55;7.55;;;;;;;13.06;69.64;100537.94;144994;576;5002;-82
2021/11/27 02:05:25;;;;;;;12.20;7.25;;;;;;;13.08;69.66;100553.59;144994;605;5002;-81
2021/11/27 02:07:53;;;;;;;10.63;7.15;;;;;;;13.09;69.51;100564.88;144994;582;5002;-81
2021/11/27 02:10:20;;;;;;;9.35;5.97;;;;;;;12.44;70.48;100571.50;144994;638;5002;-81
2021/11/27 02:12:49;;;;;;;10.43;6.25;;;;;;;12.67;70.42;100562.41;144994;584;5002;-81
2021/11/27 02:15:19;;;;;;;9.05;6.45;;;;;;;12.72;70.47;100572.91;144994;575;5002;-81
2021/11/27 02:17:46;;;;;;;9.95;6.43;;;;;;;12.78;70.19;100580.84;144994;785;5002;-81
2021/11/27 02:20:13;;;;;;;10.80;6.78;;;;;;;12.83;70.28;100562.72;144994;701;5002;-81
2021/11/27 02:22:42;;;;;;;9.18;6.97;;;;;;;12.86;70.21;100552.34;144994;595;5002;-82
2021/11/27 02:25:13;;;;;;;13.23;7.53;;;;;;;12.90;70.32;100548.97;144993;585;5002;-81
2021/11/27 02:27:47;;;;;;;12.90;8.00;;;;;;;12.94;70.08;100545.53;144994;604;5002;-82
2021/11/27 02:30:18;;;;;;;11.68;8.00;;;;;;;12.98;70.14;100546.47;144994;641;5002;-82
2021/11/27 02:32:45;;;;;;;13.73;8.52;;;;;;;13.00;69.97;100548.25;144994;699;5002;-82
2021/11/27 02:35:12;;;;;;;11.95;8.10;;;;;;;13.02;69.94;100541.31;144994;631;5002;-82
2021/11/27 02:37:38;;;;;;;11.55;8.30;;;;;;;12.99;70.15;100554.31;144994;582;5002;-82
2021/11/27 02:40:08;;;;;;;11.70;7.82;;;;;;;12.99;70.14;100572.53;144994;570;5002;-81
2021/11/27 02:42:35;;;;;;;11.27;8.10;;;;;;;12.99;70.21;100567.31;144993;630;5002;-81
2021/11/27 02:45:04;;;;;;;12.75;8.30;;;;;;;13.01;69.99;100557.84;144994;752;5002;-81
2021/11/27 02:47:30;;;;;;;12.07;8.35;;;;;;;13.01;70.32;100562.16;144994;602;5002;-81
2021/11/27 02:50:12;;;;;;;12.77;8.82;;;;;;;13.02;70.54;100564.78;144994;624;5002;-86
2021/11/27 02:52:46;;;;;;;12.80;8.80;;;;;;;13.00;70.75;100561.28;144994;656;5002;-85
2021/11/27 02:55:23;;;;;;;11.20;8.32;;;;;;;13.09;71.18;100560.53;144993;656;5002;-86
2021/11/27 02:57:50;;;;;;;9.48;8.02;;;;;;;13.21;70.73;100565.97;144994;565;5002;-83
2021/11/27 03:00:21;;;;;;;10.32;7.62;;;;;;;13.29;70.58;100566.09;144994;614;5002;-81
2021/11/27 03:02:54;;;;;;;9.85;7.25;;;;;;;13.36;70.32;100575.81;144994;619;5002;-82
2021/11/27 03:05:21;;;;;;;11.98;7.18;;;;;;;13.35;70.12;100573.19;144994;598;5002;-81
2021/11/27 03:07:50;;;;;;;12.77;6.40;;;;;;;13.34;69.82;100566.22;144994;577;5002;-82
2021/11/27 03:10:20;;;;;;;9.68;6.10;;;;;;;13.36;69.93;100569.72;144994;611;5002;-81
2021/11/27 03:12:48;;;;;;;11.18;6.03;;;;;;;13.40;70.08;100566.31;144994;701;5002;-82
2021/11/27 03:15:17;;;;;;;11.00;5.57;;;;;;;13.42;69.93;100573.28;144994;590;5002;-81
2021/11/27 03:17:45;;;;;;;11.75;6.47;;;;;;;13.34;69.63;100567.06;144994;606;5002;-81
2021/11/27 03:20:14;;;;;;;9.20;6.03;;;;;;;13.32;69.78;100555.72;144994;598;5002;-82
2021/11/27 03:22:42;;;;;;;8.32;6.10;;;;;;;13.29;69.71;100563.50;144994;601;5002;-80
2021/11/27 03:25:10;;;;;;;9.18;6.10;;;;;;;13.24;69.85;100562.53;144994;569;5002;-82
2021/11/27 03:27:40;;;;;;;11.32;6.35;;;;;;;13.20;69.60;100555.50;144993;587;4566;-82
2021/11/27 03:30:12;;;;;;;8.45;5.40;;;;;;;13.16;69.70;100561.56;144994;597;4567;-82
2021/11/27 03:32:39;;;;;;;8.48;6.18;;;;;;;13.08;69.88;100569.22;144994;641;4572;-82
2021/11/27 03:35:07;;;;;;;8.43;5.22;;;;;;;13.05;69.87;100562.22;144992;684;6002;-82
2021/11/27 03:37:33;;;;;;;6.22;4.35;;;;;;;13.02;69.82;100564.78;144992;580;6002;-82
2021/11/27 03:40:01;;;;;;;8.07;4.78;;;;;;;13.00;69.93;100571.69;144992;619;6002;-81
2021/11/27 03:42:27;;;;;;;6.35;4.55;;;;;;;12.99;69.98;100576.88;144992;602;6002;-81
2021/11/27 03:44:54;;;;;;;8.57;4.80;;;;;;;12.97;69.92;100582.06;144991;658;6002;-82
2021/11/27 03:47:21;;;;;;;7.03;4.97;;;;;;;12.97;70.13;100582.06;144992;629;6002;-82
2021/11/27 03:49:47;;;;;;;6.95;5.05;;;;;;;12.94;70.20;100568.97;144992;569;6002;-82
2021/11/27 03:52:15;;;;;;;7.53;5.10;;;;;;;12.95;70.35;100590.69;144992;612;6002;-82
2021/11/27 03:54:42;;;;;;;7.68;5.07;;;;;;;12.93;70.40;100592.41;144992;721;6002;-82
2021/11/27 03:57:09;;;;;;;7.68;4.95;;;;;;;12.75;70.88;100593.81;144992;586;6002;-80
2021/11/27 03:59:36;;;;;;;6.68;4.95;;;;;;;12.80;70.82;100583.50;144992;583;6002;-83
2021/11/27 04:02:03;;;;;;;7.97;4.82;;;;;;;12.81;70.79;100574.84;144992;577;6002;-83
2021/11/27 04:04:30;;;;;;;8.30;5.40;;;;;;;12.82;70.78;100585.28;144992;592;6002;-81
2021/11/27 04:06:56;;;;;;;7.00;4.60;;;;;;;12.82;70.74;100577.47;144992;564;6002;-80
2021/11/27 04:09:24;;;;;;;9.98;5.55;;;;;;;12.84;70.83;100574.91;144992;642;6002;-80
2021/11/27 04:11:51;;;;;;;7.60;5.05;;;;;;;12.85;70.84;100566.22;144992;579;6002;-81
2021/11/27 04:14:17;;;;;;;8.13;5.20;;;;;;;12.87;70.81;100573.22;144992;600;6002;-82
2021/11/27 04:16:44;;;;;;;6.82;4.78;;;;;;;12.93;71.04;100579.37;144992;563;6002;-83
2021/11/27 04:19:10;;;;;;;7.43;4.87;;;;;;;12.97;70.90;100576.84;144992;570;6002;-81
2021/11/27 04:21:37;;;;;;;8.93;4.82;;;;;;;13.03;70.87;100576.09;144992;589;6002;-81
2021/11/27 04:24:07;;;;;;;9.50;5.25;;;;;;;13.08;70.72;100571.84;144992;707;6002;-83
2021/11/27 04:26:33;;;;;;;9.73;5.20;;;;;;;13.11;70.72;100563.19;144992;619;6002;-83
2021/11/27 04:29:00;;;;;;;9.65;5.68;;;;;;;13.11;70.50;100571.00;144992;623;6002;-81
2021/11/27 04:31:26;;;;;;;9.60;6.35;;;;;;;13.10;70.52;100584.91;144992;599;6002;-81
2021/11/27 04:33:53;;;;;;;9.52;6.85;;;;;;;13.09;70.40;100598.75;144991;578;6002;-81
2021/11/27 04:36:21;;;;;;;11.95;7.20;;;;;;;13.05;70.78;100611.75;144992;622;6002;-82
2021/11/27 04:38:52;;;;;;;8.07;6.43;;;;;;;13.08;70.69;100600.50;144992;569;6002;-82
2021/11/27 04:41:20;;;;;;;9.38;7.20;;;;;;;13.16;70.68;100588.47;144992;576;6002;-81
2021/11/27 04:43:47;;;;;;;9.35;6.95;;;;;;;13.22;70.99;100588.59;144992;644;6002;-81
2021/11/27 04:46:15;;;;;;;13.50;8.00;;;;;;;13.28;70.58;100579.97;144992;594;6002;-81
2021/11/27 04:48:43;;;;;;;11.80;8.18;;;;;;;13.35;69.93;100575.78;144992;571;6002;-80
2021/11/27 04:51:19;;;;;;;12.95;9.13;;;;;;;13.40;70.14;100579.34;144992;794;6002;-87
2021/11/27 04:54:09;;;;;;;13.82;8.90;;;;;;;13.48;70.03;100589.91;144992;614;6002;-81
2021/11/27 04:56:54;;;;;;;;;;;;;;;;;;;;;
2021/11/27 04:59:27;;;;;;;13.23;9.30;;;;;;;13.64;69.74;100598.84;144992;588;6004;-80
2021/11/27 05:02:07;;;;;;;12.90;10.02;;;;;;;13.68;69.94;100598.91;144992;619;6004;-82
2021/11/27 05:04:48;;;;;;;15.98;9.00;;;;;;;13.72;69.66;100594.62;144992;650;6004;-86
2021/11/27 05:07:42;;;;;;;12.65;9.07;;;;;;;13.76;69.17;100599.91;144992;618;6004;-82
2021/11/27 05:10:10;;;;;;;12.37;9.60;;;;;;;13.79;69.69;100601.66;144992;661;6002;-82
2021/11/27 05:12:37;;;;;;;15.07;9.35;;;;;;;13.78;69.21;100608.62;144992;848;6002;-81
2021/11/27 05:15:06;;;;;;;16.77;9.80;;;;;;;13.73;68.97;100605.06;144992;628;6002;-81
2021/11/27 05:17:33;;;;;;;13.35;9.60;;;;;;;13.68;69.21;100608.44;144992;646;6002;-82
2021/11/27 05:20:00;;;;;;;13.50;9.35;;;;;;;13.63;69.35;100605.75;144992;569;6002;-81
2021/11/27 05:22:27;;;;;;;13.15;8.98;;;;;;;13.58;68.96;100613.56;144992;673;6002;-82
2021/11/27 05:24:53;;;;;;;12.93;8.43;;;;;;;13.49;69.68;100608.19;144992;577;6002;-82
2021/11/27 05:27:21;;;;;;;13.57;8.63;;;;;;;13.43;69.39;100601.12;144991;613;6002;-81
2021/11/27 05:29:49;;;;;;;11.93;8.13;;;;;;;13.38;69.58;100604.53;144992;565;6002;-81
2021/11/27 05:35:11;;;;;;;13.75;9.05;;;;;;;13.24;69.90;100586.88;144992;647;6004;-82
2021/11/27 05:37:38;;;;;;;15.07;10.32;;;;;;;13.18;69.96;100589.37;144992;640;6004;-81
2021/11/27 05:40:08;;;;;;;15.98;10.60;;;;;;;13.16;70.55;100591.09;144991;570;6000;-80
2021/11/27 05:42:35;;;;;;;15.35;9.77;;;;;;;13.10;70.45;100603.13;144992;638;6002;-81
2021/11/27 05:45:01;;;;;;;14.25;9.52;;;;;;;13.10;70.81;100611.81;144992;732;6002;-82
2021/11/27 05:47:29;;;;;;;13.70;8.82;;;;;;;13.09;70.59;100625.69;144992;703;6002;-81
2021/11/27 05:50:06;;;;;;;14.30;8.40;;;;;;;13.09;70.84;100627.44;144992;581;6002;-82
2021/11/27 05:52:40;;;;;;;14.50;8.60;;;;;;;13.13;70.89;100627.50;144992;692;6002;-83
2021/11/27 05:55:31;;;;;;;;;;;;;;;;;;;;;
2021/11/27 05:58:03;;;;;;;16.27;7.80;;;;;;;13.34;70.28;100628.78;144992;612;6004;-82
2021/11/27 06:00:31;;;;;;;18.98;8.98;;;;;;;13.38;70.58;100641.91;144992;561;6004;-81
2021/11/27 06:02:58;;;;;;;14.25;8.15;;;;;;;13.37;70.20;100653.16;144992;682;6004;-82
2021/11/27 06:05:28;;;;;;;16.08;7.85;;;;;;;13.35;70.37;100661.84;144992;630;6004;-82
2021/11/27 06:07:56;;;;;;;14.50;8.65;;;;;;;13.30;70.05;100655.59;144992;576;6004;-81
2021/11/27 06:10:26;;;;;;;16.55;8.20;;;;;;;13.25;70.23;100659.03;144992;611;6005;-81
2021/11/27 06:12:53;;;;;;;15.60;9.38;;;;;;;13.22;70.32;100658.97;144992;625;6004;-81
2021/11/27 06:15:20;;;;;;;10.45;8.52;;;;;;;13.21;70.89;100664.16;144992;709;6004;-80
2021/11/27 06:17:47;;;;;;;14.20;8.15;;;;;;;13.20;70.59;100665.00;144992;580;6005;-80
2021/11/27 06:20:15;;;;;;;12.98;8.70;;;;;;;13.18;70.69;100661.50;144992;562;6004;-81
2021/11/27 06:22:44;;;;;;;12.93;8.23;;;;;;;13.18;71.08;100664.97;144992;701;6004;-83
2021/11/27 06:25:11;;;;;;;15.82;9.13;;;;;;;13.17;70.96;100664.94;144992;738;6004;-80
2021/11/27 06:27:38;;;;;;;15.20;8.70;;;;;;;13.33;71.02;100661.81;144992;619;6004;-82
2021/11/27 06:30:07;;;;;;;16.35;9.68;;;;;;;13.67;71.07;100664.09;144992;645;6004;-82
2021/11/27 06:32:35;;;;;;;20.58;10.38;;;;;;;14.04;70.91;100660.31;144992;615;6004;-81
2021/11/27 06:35:03;;;;;;;16.60;9.68;;;;;;;14.44;71.04;100660.84;144992;771;6004;-82
2021/11/27 06:37:33;;;;;;;17.10;10.68;;;;;;;14.77;70.92;100677.84;144992;610;6004;-83
2021/11/27 06:40:00;;;;;;;17.95;10.15;;;;;;;15.09;70.95;100682.56;144992;604;6004;-83
2021/11/27 06:42:29;;;;;;;13.95;9.23;;;;;;;15.43;70.54;100659.38;144992;599;6004;-81
2021/11/27 06:44:55;;;;;;;15.00;9.02;;;;;;;15.80;70.63;100669.31;144992;581;6004;-83
2021/11/27 06:47:23;;;;;;;18.30;9.95;;;;;;;16.22;69.95;100663.44;144992;602;6004;-83
2021/11/27 06:49:51;;;;;;;14.65;9.82;;;;;;;16.66;69.22;100660.16;144992;581;6004;-82
2021/11/27 06:52:19;;;;;;;12.75;9.05;;;;;;;17.04;68.37;100661.19;144992;591;6004;-81
2021/11/27 06:54:46;;;;;;;14.77;8.93;;;;;;;17.35;67.69;100664.72;144992;599;6004;-82
2021/11/27 06:57:13;;;;;;;14.20;8.68;;;;;;;17.64;67.09;100668.25;144992;568;6004;-82
2021/11/27 06:59:41;;;;;;;17.02;9.23;;;;;;;17.87;66.42;100671.75;144992;618;6004;-82
2021/11/27 07:02:07;;;;;;;15.82;9.05;;;;;;;18.06;66.31;100679.62;144992;666;6004;-81
2021/11/27 07:04:34;;;;;;;17.12;9.15;;;;;;;18.23;65.69;100688.34;144992;579;6004;-82
2021/11/27 07:07:01;;;;;;;16.55;8.63;;;;;;;18.32;65.52;100679.56;144992;572;6004;-82
2021/11/27 07:09:28;;;;;;;13.38;8.35;;;;;;;18.43;64.68;100688.28;144992;566;6005;-80
2021/11/27 07:11:54;;;;;;;13.32;7.78;;;;;;;18.50;64.15;100689.16;144992;575;6004;-81
2021/11/27 07:14:21;;;;;;;14.40;8.10;;;;;;;18.51;64.08;100690.03;144992;598;6004;-82
2021/11/27 07:16:47;;;;;;;14.15;8.43;;;;;;;18.47;64.47;100686.56;144992;559;6005;-82
2021/11/27 07:19:15;;;;;;;15.50;8.48;;;;;;;18.55;63.99;100691.75;144992;579;6004;-83
2021/11/27 07:21:41;;;;;;;14.23;8.50;;;;;;;18.72;63.73;100687.31;144992;587;6004;-82
2021/11/27 07:24:08;;;;;;;14.70;8.38;;;;;;;18.93;63.64;100706.53;144992;580;6018;-82
2021/11/27 07:26:34;;;;;;;17.52;8.63;;;;;;;19.15;63.90;100712.56;144992;584;6004;-85
2021/11/27 07:29:02;;;;;;;15.88;8.68;;;;;;;19.40;63.55;100708.03;144991;599;6000;-83
2021/11/27 07:31:29;;;;;;;12.00;7.30;;;;;;;19.61;63.33;100704.34;144992;597;6002;-80
2021/11/27 07:33:55;;;;;;;12.98;8.48;;;;;;;19.83;63.02;100712.13;144992;566;6002;-82
2021/11/27 07:36:23;;;;;;;15.35;9.68;;;;;;;19.98;63.04;100708.47;144992;596;6002;-81
2021/11/27 07:38:49;;;;;;;18.77;10.68;;;;;;;20.18;62.71;100706.50;144992;590;6002;-83
2021/11/27 07:41:17;;;;;;;18.77;10.73;;;;;;;20.35;62.20;100700.22;144992;612;6002;-84
2021/11/27 07:43:43;;;;;;;15.85;10.98;;;;;;;20.46;61.90;100698.31;144992;568;6002;-82
2021/11/27 07:46:12;;;;;;;16.02;10.13;;;;;;;20.57;61.62;100691.16;144992;594;6002;-83
2021/11/27 07:48:40;;;;;;;16.95;10.48;;;;;;;20.67;60.87;100686.69;144992;634;6002;-83
2021/11/27 07:51:07;;;;;;;11.23;7.60;;;;;;;20.72;60.44;100676.06;144991;606;6002;-81
2021/11/27 07:53:36;;;;;;;17.67;8.27;;;;;;;20.74;59.77;100666.34;144992;585;6002;-82
2021/11/27 07:56:04;;;;;;;19.15;9.20;;;;;;;20.70;59.95;100662.03;144992;593;6002;-81
2021/11/27 07:58:31;;;;;;;16.35;9.05;;;;;;;20.69;59.63;100665.56;144992;593;6002;-82
2021/11/27 08:00:58;;;;;;;18.33;8.88;;;;;;;20.74;59.93;100669.00;144992;587;6002;-84
2021/11/27 08:03:25;;;;;;;18.08;9.85;;;;;;;20.82;60.07;100669.75;144992;590;6002;-81
2021/11/27 08:05:51;;;;;;;17.40;13.02;;;;;;;20.93;59.80;100659.94;144992;580;6002;-82
2021/11/27 08:08:18;;;;;;;19.10;11.38;;;;;;;21.01;59.75;100658.09;144992;622;6002;-83
2021/11/27 08:10:45;;;;;;;18.45;10.02;;;;;;;21.08;59.57;100657.97;144991;589;6002;-82
2021/11/27 08:13:12;;;;;;;17.62;9.80;;;;;;;21.14;59.61;100653.50;144992;599;6002;-82
2021/11/27 08:15:39;;;;;;;18.48;10.90;;;;;;;21.20;57.94;100657.78;144992;609;6002;-83
2021/11/27 08:18:06;;;;;;;19.33;12.23;;;;;;;21.25;59.27;100663.00;144992;588;6002;-82
2021/11/27 08:20:34;;;;;;;20.27;11.25;;;;;;;21.31;59.14;100668.19;144992;590;6002;-81
2021/11/27 08:23:01;;;;;;;21.45;11.00;;;;;;;21.36;59.20;100664.59;144992;610;6002;-81
2021/11/27 08:25:29;;;;;;;18.00;10.90;;;;;;;21.44;59.15;100663.59;144992;595;6002;-82
2021/11/27 08:27:55;;;;;;;16.52;9.30;;;;;;;21.52;58.88;100667.00;144992;593;6002;-82
2021/11/27 08:30:25;;;;;;;16.50;8.70;;;;;;;21.61;58.77;100666.00;144992;684;6002;-82
2021/11/27 08:32:55;;;;;;;8.85;5.97;;;;;;;21.65;58.59;100675.59;144992;564;6002;-81
2021/11/27 08:35:22;;;;;;;14.85;9.88;;;;;;;21.74;58.50;100681.59;144992;613;6002;-82
2021/11/27 08:37:49;;;;;;;13.55;9.07;;;;;;;21.80;58.33;100679.78;144992;618;6002;-82
2021/11/27 08:40:16;;;;;;;12.68;8.23;;;;;;;21.84;58.70;100677.06;144992;570;6002;-80
2021/11/27 08:42:42;;;;;;;9.02;5.57;;;;;;;21.94;58.53;100672.47;144992;571;6002;-82
2021/11/27 08:45:10;;;;;;;6.55;3.90;;;;;;;22.00;58.08;100672.38;144992;581;6002;-82
2021/11/27 08:47:38;;;;;;;14.57;5.68;;;;;;;22.02;58.40;100659.12;144992;577;6002;-86
2021/11/27 08:50:13;;;;;;;9.07;5.50;;;;;;;22.04;58.20;100654.66;144992;618;6002;-85
2021/11/27 08:52:45;;;;;;;6.30;3.70;;;;;;;21.96;54.60;100638.94;144991;580;6002;-84
2021/11/27 08:55:31;;;;;;;6.05;3.30;;;;;;;21.27;58.00;100645.38;144992;596;6002;-86
2021/11/27 08:57:57;;;;;;;7.75;3.17;;;;;;;21.57;58.23;100638.78;144992;578;6002;-82
2021/11/27 09:00:25;;;;;;;6.95;2.60;;;;;;;21.09;53.33;100617.50;144992;600;6010;-83
2021/11/27 09:03:05;;;;;;;5.00;2.58;;;;;;;21.25;57.90;100610.22;144992;595;6002;-83
2021/11/27 09:05:31;;;;;;;3.78;3.12;;;;;;;21.05;56.46;100600.84;144992;569;6002;-83
2021/11/27 09:07:58;;;;;;;8.75;3.65;;;;;;;20.77;54.49;100609.16;144992;614;6002;-83
2021/11/27 09:10:29;;;;;;;5.43;1.85;;;;;;;20.56;54.02;100597.09;144992;582;6002;-84
2021/11/27 09:13:06;;;;;;;6.85;2.50;;;;;;;20.76;57.40;100595.97;144992;645;6002;-84
2021/11/27 09:15:49;;;;;;;5.32;2.08;;;;;;;20.96;57.24;100588.66;144992;590;6011;-84
2021/11/27 09:18:16;;;;;;;4.32;1.87;;;;;;;21.01;56.66;100580.66;144992;577;6002;-85
2021/11/27 09:20:42;;;;;;;6.10;2.33;;;;;;;21.01;56.92;100573.66;144992;670;6002;-83
2021/11/27 09:23:09;;;;;;;3.47;1.75;;;;;;;21.14;53.25;100563.75;144992;687;6002;-84
2021/11/27 09:25:38;;;;;;;6.60;2.30;;;;;;;21.40;54.83;100558.94;144992;591;6002;-83
2021/11/27 09:28:05;;;;;;;4.85;1.85;;;;;;;21.37;55.13;100557.22;144992;666;6002;-84
2021/11/27 09:30:32;;;;;;;4.05;1.77;;;;;;;21.37;51.64;100542.22;144992;565;6002;-82
2021/11/27 09:32:59;;;;;;;8.73;3.45;;;;;;;21.50;55.19;100548.19;144992;583;6002;-82
2021/11/27 09:35:29;;;;;;;6.35;2.40;;;;;;;21.31;54.01;100547.62;144992;630;6002;-83
2021/11/27 09:37:55;;;;;;;16.52;9.95;;;;;;;20.97;54.94;100556.09;144992;609;6002;-83
2021/11/27 09:40:22;;;;;;;7.65;3.60;;;;;;;21.18;54.93;100559.28;144992;626;6002;-79
2021/11/27 09:42:53;;;;;;;34.53;23.05;;;;;;;21.33;53.19;100558.16;144992;586;6002;-81
2021/11/27 09:45:24;;;;;;;9.43;5.25;;;;;;;21.28;53.70;100565.28;144992;590;6002;-80
2021/11/27 09:47:53;;;;;;;7.70;2.40;;;;;;;21.17;50.97;100582.19;144992;652;6002;-79
2021/11/27 09:50:21;;;;;;;23.35;10.88;;;;;;;21.18;53.34;100576.00;144993;582;6002;-82
2021/11/27 09:52:47;;;;;;;6.20;2.97;;;;;;;21.29;53.42;100578.47;144993;587;6002;-83
2021/11/27 09:55:19;;;;;;;6.47;1.98;;;;;;;21.11;53.49;100579.66;144993;581;6002;-80
2021/11/27 09:57:48;;;;;;;8.68;4.85;;;;;;;21.06;53.57;100581.50;144993;591;6002;-81
2021/11/27 10:00:17;;;;;;;28.67;18.90;;;;;;;21.11;52.77;100579.66;144993;569;6002;-83
2021/11/27 10:02:44;;;;;;;4.45;1.73;;;;;;;20.86;52.59;100579.16;144993;571;6002;-82
2021/11/27 10:05:14;;;;;;;6.22;3.08;;;;;;;20.79;53.28;100566.94;144993;585;6002;-81
2021/11/27 10:07:42;;;;;;;9.98;5.93;;;;;;;20.78;52.42;100563.44;144993;578;6002;-81
2021/11/27 10:10:10;;;;;;;5.10;2.20;;;;;;;20.80;52.93;100563.41;144993;616;6002;-81
2021/11/27 10:12:40;;;;;;;7.65;1.90;;;;;;;20.89;53.27;100555.34;144993;572;6002;-82
2021/11/27 10:15:08;;;;;;;4.90;1.50;;;;;;;21.04;52.95;100559.50;144993;582;6002;-82
2021/11/27 10:17:35;;;;;;;8.85;1.62;;;;;;;21.11;52.31;100560.28;144993;607;6002;-81
2021/11/27 10:20:06;;;;;;;8.90;2.08;;;;;;;21.28;53.27;100549.44;144993;577;6002;-81
2021/11/27 10:22:58;;;;;;;4.93;3.05;;;;;;;21.37;51.19;100539.59;144992;565;6002;-81
2021/11/27 10:25:39;;;;;;;6.93;3.72;;;;;;;21.42;51.60;100536.88;144992;567;6000;-81
2021/11/27 10:28:18;;;;;;;4.05;1.80;;;;;;;21.42;50.37;100528.09;144992;634;6011;-82
2021/11/27 10:30:58;;;;;;;5.87;1.80;;;;;;;21.35;53.48;100525.56;144992;652;6000;-80
2021/11/27 10:33:26;;;;;;;4.68;1.58;;;;;;;21.37;53.31;100530.81;144992;624;6000;-82
2021/11/27 10:36:06;;;;;;;5.37;1.65;;;;;;;21.31;53.35;100526.50;144993;616;6000;-82
2021/11/27 10:38:47;;;;;;;2.95;1.10;;;;;;;21.28;53.09;100523.03;144993;566;6003;-80
2021/11/27 10:41:16;;;;;;;5.45;1.60;;;;;;;21.16;48.59;100510.94;144993;566;6002;-81
2021/11/27 10:44:24;;;;;;;3.58;1.30;;;;;;;20.98;51.89;100515.63;144993;593;6002;-81
2021/11/27 10:46:51;;;;;;;3.72;1.00;;;;;;;20.86;47.51;100507.91;144993;639;6000;-81
2021/11/27 10:49:26;;;;;;;3.20;1.20;;;;;;;20.61;50.60;100513.53;144993;589;6002;-81
2021/11/27 10:52:28;;;;;;;3.47;1.60;;;;;;;20.64;48.35;100510.88;144993;573;6002;-81
2021/11/27 10:54:58;;;;;;;5.03;1.30;;;;;;;20.76;48.58;100506.31;144993;581;6000;-81
2021/11/27 10:57:38;;;;;;;6.35;2.58;;;;;;;20.75;51.11;100502.81;144993;586;6002;-82
2021/11/27 11:00:50;;;;;;;2.67;1.35;;;;;;;20.67;49.74;100504.69;144993;644;6002;-82
2021/11/27 11:03:37;;;;;;;3.33;1.10;;;;;;;20.44;47.76;100500.59;144993;630;6002;-82
2021/11/27 11:06:27;;;;;;;2.78;0.95;;;;;;;20.36;50.94;100507.75;144993;594;6002;-81
2021/11/27 11:08:55;;;;;;;3.67;1.27;;;;;;;20.29;51.21;100500.81;144993;607;6002;-82
2021/11/27 11:11:26;;;;;;;3.60;1.42;;;;;;;20.24;48.11;100502.66;144993;616;6002;-83
2021/11/27 11:14:20;;;;;;;4.62;1.08;;;;;;;20.14;50.99;100501.00;144993;644;6002;-82
2021/11/27 11:16:58;;;;;;;7.03;1.20;;;;;;;20.05;51.84;100489.72;144993;578;6004;-81
2021/11/27 11:19:25;;;;;;;6.50;1.30;;;;;;;19.92;48.40;100489.00;144993;584;6002;-81
2021/11/27 11:22:11;;;;;;;5.65;1.50;;;;;;;19.93;51.83;100496.00;144993;571;6002;-82
2021/11/27 11:24:39;;;;;;;5.45;1.45;;;;;;;19.83;50.68;100489.09;144993;586;6002;-80
2021/11/27 11:27:09;;;;;;;3.75;1.15;;;;;;;19.80;50.33;100473.34;144993;588;6002;-83
2021/11/27 11:29:51;;;;;;;6.15;1.12;;;;;;;19.75;49.90;100473.34;144994;620;5002;-81
2021/11/27 11:32:23;;;;;;;5.25;1.40;;;;;;;19.82;51.97;100463.69;144994;612;5002;-80
2021/11/27 11:34:53;;;;;;;6.30;1.20;;;;;;;19.69;51.84;100475.19;144994;573;5002;-82
2021/11/27 11:37:20;;;;;;;2.47;1.00;;;;;;;19.59;52.07;100477.06;144994;573;5002;-81
2021/11/27 11:39:48;;;;;;;6.10;1.92;;;;;;;19.55;52.30;100476.22;144994;639;5002;-83
2021/11/27 11:42:15;;;;;;;4.60;1.60;;;;;;;19.67;52.63;100477.84;144994;567;5002;-79
2021/11/27 11:44:41;;;;;;;7.90;1.50;;;;;;;19.75;51.04;100475.97;144994;573;5016;-81